sensor_id;sensor_type;location;lat;lon;timestamp;pressure;altitude;pressure_sealevel;temperature;humidity
44131;BME280;29792;48.726;9.248;2022-09-01T00:01:29;97137.44;;;16.10;100.00
44131;BME280;29792;48.726;9.248;2022-09-01T00:03:56;97144.38;;;16.09;100.00
44131;BME280;29792;48.726;9.248;2022-09-01T00:06:29;97130.94;;;16.06;100.00
44131;BME280;29792;48.726;9.248;2022-09-01T00:08:56;97136.28;;;16.04;100.00
44131;BME280;29792;48.726;9.248;2022-09-01T00:11:24;97136.44;;;16.02;100.00
44131;BME280;29792;48.726;9.248;2022-09-01T00:13:51;97137.38;;;16.01;100.00
44131;BME280;29792;48.726;9.248;2022-09-01T00:16:17;97136.72;;;15.99;100.00
44131;BME280;29792;48.726;9.248;2022-09-01T00:18:46;97137.69;;;15.98;100.00
44131;BME280;29792;48.726;9.248;2022-09-01T00:21:15;97132.50;;;15.98;100.00
44131;BME280;29792;48.726;9.248;2022-09-01T00:23:41;97136.25;;;15.96;100.00
44131;BME280;29792;48.726;9.248;2022-09-01T00:26:06;97140.88;;;15.92;100.00
44131;BME280;29792;48.726;9.248;2022-09-01T00:28:33;97140.06;;;15.92;100.00
44131;BME280;29792;48.726;9.248;2022-09-01T00:30:59;97141.03;;;15.91;100.00
44131;BME280;29792;48.726;9.248;2022-09-01T00:33:25;97141.03;;;15.91;100.00
44131;BME280;29792;48.726;9.248;2022-09-01T00:35:50;97134.09;;;15.91;100.00
44131;BME280;29792;48.726;9.248;2022-09-01T00:38:15;97138.59;;;15.89;100.00
44131;BME280;29792;48.726;9.248;2022-09-01T00:40:41;97131.84;;;15.88;100.00
44131;BME280;29792;48.726;9.248;2022-09-01T00:43:11;97129.41;;;15.87;100.00
44131;BME280;29792;48.726;9.248;2022-09-01T00:45:37;97126.00;;;15.86;100.00
44131;BME280;29792;48.726;9.248;2022-09-01T00:48:02;97129.41;;;15.87;100.00
44131;BME280;29792;48.726;9.248;2022-09-01T00:50:30;97126.00;;;15.86;100.00
44131;BME280;29792;48.726;9.248;2022-09-01T00:52:56;97121.66;;;15.87;100.00
44131;BME280;29792;48.726;9.248;2022-09-01T00:55:24;97123.72;;;15.83;100.00
44131;BME280;29792;48.726;9.248;2022-09-01T00:57:50;97125.47;;;15.83;100.00
44131;BME280;29792;48.726;9.248;2022-09-01T01:00:20;97128.22;;;15.81;100.00
44131;BME280;29792;48.726;9.248;2022-09-01T01:02:48;97121.44;;;15.80;100.00
44131;BME280;29792;48.726;9.248;2022-09-01T01:05:14;97116.44;;;15.79;100.00
44131;BME280;29792;48.726;9.248;2022-09-01T01:07:42;97121.59;;;15.79;100.00
44131;BME280;29792;48.726;9.248;2022-09-01T01:10:11;97117.41;;;15.78;100.00
44131;BME280;29792;48.726;9.248;2022-09-01T01:12:38;97124.34;;;15.77;100.00
44131;BME280;29792;48.726;9.248;2022-09-01T01:15:09;97123.66;;;15.75;100.00
44131;BME280;29792;48.726;9.248;2022-09-01T01:17:35;97127.22;;;15.74;100.00
44131;BME280;29792;48.726;9.248;2022-09-01T01:20:01;97124.00;;;15.72;100.00
44131;BME280;29792;48.726;9.248;2022-09-01T01:25:49;97127.69;;;15.70;100.00
44131;BME280;29792;48.726;9.248;2022-09-01T01:28:21;97124.44;;;15.68;100.00
44131;BME280;29792;48.726;9.248;2022-09-01T01:30:52;97117.16;;;15.63;100.00
44131;BME280;29792;48.726;9.248;2022-09-01T01:33:20;97121.50;;;15.62;100.00
44131;BME280;29792;48.726;9.248;2022-09-01T01:35:47;97121.94;;;15.58;100.00
44131;BME280;29792;48.726;9.248;2022-09-01T01:38:13;97120.50;;;15.55;100.00
44131;BME280;29792;48.726;9.248;2022-09-01T01:40:40;97128.38;;;15.54;100.00
44131;BME280;29792;48.726;9.248;2022-09-01T01:43:06;97123.47;;;15.51;100.00
44131;BME280;29792;48.726;9.248;2022-09-01T01:45:31;97122.66;;;15.50;100.00
44131;BME280;29792;48.726;9.248;2022-09-01T01:47:57;97126.06;;;15.51;100.00
44131;BME280;29792;48.726;9.248;2022-09-01T01:50:26;97129.59;;;15.50;100.00
44131;BME280;29792;48.726;9.248;2022-09-01T01:52:53;97133.13;;;15.49;100.00
44131;BME280;29792;48.726;9.248;2022-09-01T01:55:20;97125.69;;;15.46;100.00
44131;BME280;29792;48.726;9.248;2022-09-01T01:57:46;97135.38;;;15.44;100.00
44131;BME280;29792;48.726;9.248;2022-09-01T02:00:20;97127.91;;;15.41;100.00
44131;BME280;29792;48.726;9.248;2022-09-01T02:02:47;97129.84;;;15.39;100.00
44131;BME280;29792;48.726;9.248;2022-09-01T02:05:17;97127.41;;;15.37;100.00
44131;BME280;29792;48.726;9.248;2022-09-01T02:07:49;97132.88;;;15.34;100.00
44131;BME280;29792;48.726;9.248;2022-09-01T02:10:15;97136.41;;;15.33;100.00
44131;BME280;29792;48.726;9.248;2022-09-01T02:12:40;97148.00;;;15.29;100.00
44131;BME280;29792;48.726;9.248;2022-09-01T02:15:07;97134.41;;;15.27;100.00
44131;BME280;29792;48.726;9.248;2022-09-01T02:17:33;97133.75;;;15.25;100.00
44131;BME280;29792;48.726;9.248;2022-09-01T02:19:58;97132.31;;;15.22;100.00
44131;BME280;29792;48.726;9.248;2022-09-01T02:22:24;97134.34;;;15.19;100.00
44131;BME280;29792;48.726;9.248;2022-09-01T02:24:49;97131.09;;;15.17;100.00
44131;BME280;29792;48.726;9.248;2022-09-01T02:27:16;97141.59;;;15.15;100.00
44131;BME280;29792;48.726;9.248;2022-09-01T02:29:45;97134.00;;;15.14;100.00
44131;BME280;29792;48.726;9.248;2022-09-01T02:32:11;97135.75;;;15.13;100.00
44131;BME280;29792;48.726;9.248;2022-09-01T02:34:36;97123.97;;;15.11;100.00
44131;BME280;29792;48.726;9.248;2022-09-01T02:37:04;97135.25;;;15.10;100.00
44131;BME280;29792;48.726;9.248;2022-09-01T02:39:30;97131.84;;;15.09;100.00
44131;BME280;29792;48.726;9.248;2022-09-01T02:41:58;97135.38;;;15.08;100.00
44131;BME280;29792;48.726;9.248;2022-09-01T02:44:25;97121.53;;;15.09;100.00
44131;BME280;29792;48.726;9.248;2022-09-01T02:46:51;97123.16;;;15.10;100.00
44131;BME280;29792;48.726;9.248;2022-09-01T02:49:19;97123.28;;;15.09;100.00
44131;BME280;29792;48.726;9.248;2022-09-01T02:51:49;97121.69;;;15.08;100.00
44131;BME280;29792;48.726;9.248;2022-09-01T02:54:19;97120.72;;;15.09;100.00
44131;BME280;29792;48.726;9.248;2022-09-01T02:56:47;97123.16;;;15.10;100.00
44131;BME280;29792;48.726;9.248;2022-09-01T02:59:17;97124.09;;;15.09;100.00
44131;BME280;29792;48.726;9.248;2022-09-01T03:01:47;97118.00;;;15.10;100.00
44131;BME280;29792;48.726;9.248;2022-09-01T03:04:13;97123.97;;;15.11;100.00
44131;BME280;29792;48.726;9.248;2022-09-01T03:06:39;97112.81;;;15.10;100.00
44131;BME280;29792;48.726;9.248;2022-09-01T03:09:07;97114.44;;;15.11;100.00
44131;BME280;29792;48.726;9.248;2022-09-01T03:11:36;97109.28;;;15.11;100.00
44131;BME280;29792;48.726;9.248;2022-09-01T03:14:02;97114.44;;;15.11;100.00
44131;BME280;29792;48.726;9.248;2022-09-01T03:16:28;97110.09;;;15.12;100.00
44131;BME280;29792;48.726;9.248;2022-09-01T03:18:57;97106.56;;;15.13;100.00
44131;BME280;29792;48.726;9.248;2022-09-01T03:21:23;97105.63;;;15.14;100.00
44131;BME280;29792;48.726;9.248;2022-09-01T03:23:50;97112.22;;;15.16;100.00
44131;BME280;29792;48.726;9.248;2022-09-01T03:26:17;97110.47;;;15.17;100.00
44131;BME280;29792;48.726;9.248;2022-09-01T03:28:45;97111.28;;;15.17;100.00
44131;BME280;29792;48.726;9.248;2022-09-01T03:31:11;97111.28;;;15.17;100.00
44131;BME280;29792;48.726;9.248;2022-09-01T03:33:37;97114.66;;;15.18;100.00
44131;BME280;29792;48.726;9.248;2022-09-01T03:36:03;97112.09;;;15.18;100.00
44131;BME280;29792;48.726;9.248;2022-09-01T03:38:29;97110.16;;;15.20;100.00
44131;BME280;29792;48.726;9.248;2022-09-01T03:41:03;97121.31;;;15.20;100.00
44131;BME280;29792;48.726;9.248;2022-09-01T03:43:35;97119.69;;;15.19;100.00
44131;BME280;29792;48.726;9.248;2022-09-01T03:46:00;97123.88;;;15.20;100.00
44131;BME280;29792;48.726;9.248;2022-09-01T03:48:30;97118.06;;;15.18;100.00
44131;BME280;29792;48.726;9.248;2022-09-01T03:50:58;97121.44;;;15.19;100.00
44131;BME280;29792;48.726;9.248;2022-09-01T03:53:28;97116.28;;;15.19;100.00
44131;BME280;29792;48.726;9.248;2022-09-01T03:55:54;97119.69;;;15.19;100.00
44131;BME280;29792;48.726;9.248;2022-09-01T03:58:22;97118.88;;;15.19;100.00
44131;BME280;29792;48.726;9.248;2022-09-01T04:00:50;97121.44;;;15.19;100.00
44131;BME280;29792;48.726;9.248;2022-09-01T04:03:20;97114.66;;;15.18;100.00
44131;BME280;29792;48.726;9.248;2022-09-01T04:05:48;97118.88;;;15.19;100.00
44131;BME280;29792;48.726;9.248;2022-09-01T04:08:15;97117.25;;;15.18;100.00
44131;BME280;29792;48.726;9.248;2022-09-01T04:10:44;97119.00;;;15.17;100.00
44131;BME280;29792;48.726;9.248;2022-09-01T04:13:30;97125.13;;;15.16;100.00
44131;BME280;29792;48.726;9.248;2022-09-01T04:15:56;97118.38;;;15.15;100.00
44131;BME280;29792;48.726;9.248;2022-09-01T04:18:23;97120.94;;;15.15;100.00
44131;BME280;29792;48.726;9.248;2022-09-01T04:20:54;97118.50;;;15.14;100.00
44131;BME280;29792;48.726;9.248;2022-09-01T04:23:33;97121.91;;;15.14;100.00
44131;BME280;29792;48.726;9.248;2022-09-01T04:26:04;97115.13;;;15.13;100.00
44131;BME280;29792;48.726;9.248;2022-09-01T04:28:35;97117.03;;;15.11;100.00
44131;BME280;29792;48.726;9.248;2022-09-01T04:31:03;97118.81;;;15.11;100.00
44131;BME280;29792;48.726;9.248;2022-09-01T04:33:33;97117.03;;;15.11;100.00
44131;BME280;29792;48.726;9.248;2022-09-01T04:36:05;97119.63;;;15.11;100.00
44131;BME280;29792;48.726;9.248;2022-09-01T04:38:31;97123.97;;;15.11;100.00
44131;BME280;29792;48.726;9.248;2022-09-01T04:41:03;97124.09;;;15.09;100.00
44131;BME280;29792;48.726;9.248;2022-09-01T04:43:30;97119.91;;;15.08;100.00
44131;BME280;29792;48.726;9.248;2022-09-01T04:45:56;97116.38;;;15.09;100.00
44131;BME280;29792;48.726;9.248;2022-09-01T04:48:23;97120.56;;;15.10;100.00
44131;BME280;29792;48.726;9.248;2022-09-01T04:50:49;97118.00;;;15.10;100.00
44131;BME280;29792;48.726;9.248;2022-09-01T04:53:16;97124.78;;;15.11;100.00
44131;BME280;29792;48.726;9.248;2022-09-01T04:55:43;97119.63;;;15.11;100.00
44131;BME280;29792;48.726;9.248;2022-09-01T04:58:10;97122.88;;;15.13;100.00
44131;BME280;29792;48.726;9.248;2022-09-01T05:00:38;97114.16;;;15.14;100.00
44131;BME280;29792;48.726;9.248;2022-09-01T05:03:05;97114.66;;;15.18;100.00
44131;BME280;29792;48.726;9.248;2022-09-01T05:05:41;97114.53;;;15.19;100.00
44131;BME280;29792;48.726;9.248;2022-09-01T05:08:12;97121.03;;;15.23;100.00
44131;BME280;29792;48.726;9.248;2022-09-01T05:10:45;97128.59;;;15.25;100.00
44131;BME280;29792;48.726;9.248;2022-09-01T05:13:13;97117.03;;;15.29;100.00
44131;BME280;29792;48.726;9.248;2022-09-01T05:15:41;97112.53;;;15.31;100.00
44131;BME280;29792;48.726;9.248;2022-09-01T05:18:15;97106.25;;;15.34;100.00
44131;BME280;29792;48.726;9.248;2022-09-01T05:20:47;97110.00;;;15.39;100.00
44131;BME280;29792;48.726;9.248;2022-09-01T05:23:13;97107.09;;;15.42;100.00
44131;BME280;29792;48.726;9.248;2022-09-01T05:25:41;97116.34;;;15.45;100.00
44131;BME280;29792;48.726;9.248;2022-09-01T05:28:08;97118.91;;;15.45;100.00
44131;BME280;29792;48.726;9.248;2022-09-01T05:30:34;97115.38;;;15.46;100.00
44131;BME280;29792;48.726;9.248;2022-09-01T05:33:00;97114.41;;;15.47;100.00
44131;BME280;29792;48.726;9.248;2022-09-01T05:35:25;97118.78;;;15.46;100.00
44131;BME280;29792;48.726;9.248;2022-09-01T05:37:52;97116.84;;;15.48;100.00
44131;BME280;29792;48.726;9.248;2022-09-01T05:40:18;97117.63;;;15.49;100.00
44131;BME280;29792;48.726;9.248;2022-09-01T05:42:44;97116.69;;;15.50;100.00
44131;BME280;29792;48.726;9.248;2022-09-01T05:45:10;97118.88;;;15.54;100.00
44131;BME280;29792;48.726;9.248;2022-09-01T05:47:38;97116.94;;;15.56;100.00
44131;BME280;29792;48.726;9.248;2022-09-01T05:50:04;97123.56;;;15.59;100.00
44131;BME280;29792;48.726;9.248;2022-09-01T05:52:35;97118.91;;;15.62;100.00
44131;BME280;29792;48.726;9.248;2022-09-01T05:55:02;97122.94;;;15.65;100.00
44131;BME280;29792;48.726;9.248;2022-09-01T05:57:28;97118.31;;;15.69;100.00
44131;BME280;29792;48.726;9.248;2022-09-01T05:59:53;97119.63;;;15.73;100.00
44131;BME280;29792;48.726;9.248;2022-09-01T06:02:22;97113.34;;;15.75;100.00
44131;BME280;29792;48.726;9.248;2022-09-01T06:04:50;97117.41;;;15.78;100.00
44131;BME280;29792;48.726;9.248;2022-09-01T06:07:17;97116.28;;;15.80;100.00
44131;BME280;29792;48.726;9.248;2022-09-01T06:09:46;97115.16;;;15.83;100.00
44131;BME280;29792;48.726;9.248;2022-09-01T06:12:13;97118.41;;;15.85;100.00
44131;BME280;29792;48.726;9.248;2022-09-01T06:14:42;97117.94;;;15.89;100.00
44131;BME280;29792;48.726;9.248;2022-09-01T06:17:08;97121.03;;;15.93;100.00
44131;BME280;29792;48.726;9.248;2022-09-01T06:19:35;97110.53;;;15.94;100.00
44131;BME280;29792;48.726;9.248;2022-09-01T06:22:01;97110.22;;;15.97;100.00
44131;BME280;29792;48.726;9.248;2022-09-01T06:24:26;97111.03;;;15.98;100.00
44131;BME280;29792;48.726;9.248;2022-09-01T06:26:53;97119.31;;;16.01;100.00
44131;BME280;29792;48.726;9.248;2022-09-01T06:29:18;97119.81;;;16.05;100.00
44131;BME280;29792;48.726;9.248;2022-09-01T06:31:45;97119.34;;;16.10;100.00
44131;BME280;29792;48.726;9.248;2022-09-01T06:34:16;97118.72;;;16.16;100.00
44131;BME280;29792;48.726;9.248;2022-09-01T06:36:42;97121.16;;;16.17;100.00
44131;BME280;29792;48.726;9.248;2022-09-01T06:39:09;97122.78;;;16.18;100.00
44131;BME280;29792;48.726;9.248;2022-09-01T06:41:43;97111.47;;;16.19;100.00
44131;BME280;29792;48.726;9.248;2022-09-01T06:44:10;97115.69;;;16.20;100.00
44131;BME280;29792;48.726;9.248;2022-09-01T06:46:35;97122.28;;;16.23;100.00
44131;BME280;29792;48.726;9.248;2022-09-01T06:49:00;97119.41;;;16.26;100.00
44131;BME280;29792;48.726;9.248;2022-09-01T06:51:26;97120.69;;;16.30;100.00
44131;BME280;29792;48.726;9.248;2022-09-01T06:53:56;97121.22;;;16.33;100.00
44131;BME280;29792;48.726;9.248;2022-09-01T06:56:24;97119.78;;;16.39;100.00
44131;BME280;29792;48.726;9.248;2022-09-01T06:58:53;97130.47;;;16.44;100.00
44131;BME280;29792;48.726;9.248;2022-09-01T07:01:20;97128.72;;;16.53;100.00
44131;BME280;29792;48.726;9.248;2022-09-01T07:03:48;97130.22;;;16.63;100.00
44131;BME280;29792;48.726;9.248;2022-09-01T07:06:15;97128.97;;;16.75;100.00
44131;BME280;29792;48.726;9.248;2022-09-01T07:08:42;97130.47;;;16.86;100.00
44131;BME280;29792;48.726;9.248;2022-09-01T07:11:19;97129.50;;;16.95;100.00
44131;BME280;29792;48.726;9.248;2022-09-01T07:13:49;97132.59;;;17.07;100.00
44131;BME280;29792;48.726;9.248;2022-09-01T07:16:17;97133.25;;;17.17;100.00
44131;BME280;29792;48.726;9.248;2022-09-01T07:18:46;97133.09;;;17.27;100.00
44131;BME280;29792;48.726;9.248;2022-09-01T07:21:12;97146.69;;;17.37;100.00
44131;BME280;29792;48.726;9.248;2022-09-01T07:23:37;97136.16;;;17.46;100.00
44131;BME280;29792;48.726;9.248;2022-09-01T07:26:05;97147.03;;;17.58;100.00
44131;BME280;29792;48.726;9.248;2022-09-01T07:28:31;97146.84;;;17.68;100.00
44131;BME280;29792;48.726;9.248;2022-09-01T07:30:57;97146.69;;;17.77;100.00
44131;BME280;29792;48.726;9.248;2022-09-01T07:33:22;97151.41;;;17.82;100.00
44131;BME280;29792;48.726;9.248;2022-09-01T07:35:49;97154.78;;;17.82;100.00
44131;BME280;29792;48.726;9.248;2022-09-01T07:38:17;97150.41;;;17.83;100.00
44131;BME280;29792;48.726;9.248;2022-09-01T07:40:44;97147.63;;;17.84;100.00
44131;BME280;29792;48.726;9.248;2022-09-01T07:43:21;97157.19;;;17.84;100.00
44131;BME280;29792;48.726;9.248;2022-09-01T07:45:50;97156.06;;;17.86;100.00
44131;BME280;29792;48.726;9.248;2022-09-01T07:48:17;97161.75;;;17.90;100.00
44131;BME280;29792;48.726;9.248;2022-09-01T07:50:48;97157.03;;;17.93;100.00
44131;BME280;29792;48.726;9.248;2022-09-01T07:53:18;97162.69;;;17.97;100.00
44131;BME280;29792;48.726;9.248;2022-09-01T07:55:47;97171.75;;;18.01;100.00
44131;BME280;29792;48.726;9.248;2022-09-01T07:58:15;97171.44;;;18.04;100.00
44131;BME280;29792;48.726;9.248;2022-09-01T08:00:41;97171.13;;;18.07;100.00
44131;BME280;29792;48.726;9.248;2022-09-01T08:03:10;97173.03;;;18.13;100.00
44131;BME280;29792;48.726;9.248;2022-09-01T08:05:36;97171.56;;;18.19;100.00
44131;BME280;29792;48.726;9.248;2022-09-01T08:08:01;97178.84;;;18.23;100.00
44131;BME280;29792;48.726;9.248;2022-09-01T08:10:26;97173.16;;;18.28;100.00
44131;BME280;29792;48.726;9.248;2022-09-01T08:12:52;97167.97;;;18.28;100.00
44131;BME280;29792;48.726;9.248;2022-09-01T08:15:17;97178.19;;;18.29;100.00
44131;BME280;29792;48.726;9.248;2022-09-01T08:17:43;97175.22;;;18.33;100.00
44131;BME280;29792;48.726;9.248;2022-09-01T08:20:08;97181.72;;;18.37;99.72
44131;BME280;29792;48.726;9.248;2022-09-01T08:22:35;97188.38;;;18.39;99.50
44131;BME280;29792;48.726;9.248;2022-09-01T08:25:04;97182.66;;;18.44;98.98
44131;BME280;29792;48.726;9.248;2022-09-01T08:27:31;97178.13;;;18.46;98.74
44131;BME280;29792;48.726;9.248;2022-09-01T08:29:57;97185.56;;;18.49;98.80
44131;BME280;29792;48.726;9.248;2022-09-01T08:32:24;97182.78;;;18.50;98.43
44131;BME280;29792;48.726;9.248;2022-09-01T08:34:50;97180.84;;;18.52;97.82
44131;BME280;29792;48.726;9.248;2022-09-01T08:37:15;97179.06;;;18.53;97.82
44131;BME280;29792;48.726;9.248;2022-09-01T08:39:40;97184.25;;;18.53;97.73
44131;BME280;29792;48.726;9.248;2022-09-01T08:47:44;97186.69;;;18.54;96.65
44131;BME280;29792;48.726;9.248;2022-09-01T08:50:10;97192.69;;;18.55;95.86
44131;BME280;29792;48.726;9.248;2022-09-01T08:52:40;97189.13;;;18.56;95.69
44131;BME280;29792;48.726;9.248;2022-09-01T08:57:42;97187.50;;;18.63;95.42
44131;BME280;29792;48.726;9.248;2022-09-01T09:00:11;97192.97;;;18.68;95.10
44131;BME280;29792;48.726;9.248;2022-09-01T09:08:43;97199.56;;;18.87;94.10
44131;BME280;29792;48.726;9.248;2022-09-01T09:11:36;97195.47;;;18.92;92.58
44131;BME280;29792;48.726;9.248;2022-09-01T09:16:41;97204.31;;;19.06;92.98
44131;BME280;29792;48.726;9.248;2022-09-01T09:19:17;97197.97;;;19.09;92.27
44131;BME280;29792;48.726;9.248;2022-09-01T09:21:47;97200.41;;;19.10;91.40
44131;BME280;29792;48.726;9.248;2022-09-01T09:26:55;97192.88;;;19.15;90.42
44131;BME280;29792;48.726;9.248;2022-09-01T09:29:22;97193.69;;;19.16;90.09
44131;BME280;29792;48.726;9.248;2022-09-01T09:32:01;97195.50;;;19.15;88.47
44131;BME280;29792;48.726;9.248;2022-09-01T09:34:33;97195.16;;;19.18;88.07
44131;BME280;29792;48.726;9.248;2022-09-01T09:42:37;97194.00;;;19.43;89.35
44131;BME280;29792;48.726;9.248;2022-09-01T09:45:05;97195.78;;;19.51;88.10
44131;BME280;29792;48.726;9.248;2022-09-01T09:47:40;97197.66;;;19.57;86.93
44131;BME280;29792;48.726;9.248;2022-09-01T09:52:38;97196.91;;;19.71;86.25
44131;BME280;29792;48.726;9.248;2022-09-01T09:55:17;97195.41;;;19.77;84.82
44131;BME280;29792;48.726;9.248;2022-09-01T09:57:43;97194.88;;;19.81;84.15
44131;BME280;29792;48.726;9.248;2022-09-01T10:00:24;97184.94;;;19.85;82.68
44131;BME280;29792;48.726;9.248;2022-09-01T10:02:53;97182.25;;;19.93;82.40
44131;BME280;29792;48.726;9.248;2022-09-01T10:05:45;97179.75;;;20.00;81.05
44131;BME280;29792;48.726;9.248;2022-09-01T10:11:02;97179.03;;;20.20;80.49
44131;BME280;29792;48.726;9.248;2022-09-01T10:13:28;97180.56;;;20.30;80.22
44131;BME280;29792;48.726;9.248;2022-09-01T10:15:57;97189.31;;;20.37;81.61
44131;BME280;29792;48.726;9.248;2022-09-01T10:18:36;97187.97;;;20.41;81.01
44131;BME280;29792;48.726;9.248;2022-09-01T10:21:14;97184.81;;;20.45;79.47
44131;BME280;29792;48.726;9.248;2022-09-01T10:23:41;97187.97;;;20.55;79.56
44131;BME280;29792;48.726;9.248;2022-09-01T10:26:23;97185.50;;;20.69;79.79
44131;BME280;29792;48.726;9.248;2022-09-01T10:29:00;97192.06;;;20.79;80.22
44131;BME280;29792;48.726;9.248;2022-09-01T10:31:30;97186.09;;;20.85;79.45
44131;BME280;29792;48.726;9.248;2022-09-01T10:33:56;97186.38;;;20.90;79.45
44131;BME280;29792;48.726;9.248;2022-09-01T10:36:22;97187.25;;;20.98;79.88
44131;BME280;29792;48.726;9.248;2022-09-01T10:38:48;97185.47;;;20.98;78.76
44131;BME280;29792;48.726;9.248;2022-09-01T10:41:46;97181.66;;;21.01;77.34
44131;BME280;29792;48.726;9.248;2022-09-01T10:44:24;97175.13;;;21.05;76.51
44131;BME280;29792;48.726;9.248;2022-09-01T10:46:50;97173.75;;;21.09;76.55
44131;BME280;29792;48.726;9.248;2022-09-01T10:51:54;97170.06;;;21.18;75.49
44131;BME280;29792;48.726;9.248;2022-09-01T10:54:50;97176.41;;;21.30;75.25
44131;BME280;29792;48.726;9.248;2022-09-01T10:59:42;97171.66;;;21.61;74.91
44131;BME280;29792;48.726;9.248;2022-09-01T11:02:12;97165.88;;;21.66;73.92
44131;BME280;29792;48.726;9.248;2022-09-01T11:10:25;97166.22;;;21.84;72.75
44131;BME280;29792;48.726;9.248;2022-09-01T11:15:41;97152.47;;;22.25;71.57
44131;BME280;29792;48.726;9.248;2022-09-01T11:18:10;97159.00;;;22.42;71.58
44131;BME280;29792;48.726;9.248;2022-09-01T11:20:39;97152.97;;;22.48;69.58
44131;BME280;29792;48.726;9.248;2022-09-01T11:23:22;97158.63;;;22.45;69.54
44131;BME280;29792;48.726;9.248;2022-09-01T11:25:58;97154.38;;;22.37;68.74
44131;BME280;29792;48.726;9.248;2022-09-01T11:33:47;97151.66;;;22.24;68.97
44131;BME280;29792;48.726;9.248;2022-09-01T11:38:52;97145.41;;;22.53;70.68
44131;BME280;29792;48.726;9.248;2022-09-01T11:43:54;97145.00;;;22.63;68.56
44131;BME280;29792;48.726;9.248;2022-09-01T11:46:27;97144.00;;;22.64;67.46
44131;BME280;29792;48.726;9.248;2022-09-01T11:48:53;97140.22;;;22.66;66.82
44131;BME280;29792;48.726;9.248;2022-09-01T11:51:19;97135.41;;;22.70;67.11
44131;BME280;29792;48.726;9.248;2022-09-01T11:53:45;97140.41;;;22.71;66.07
44131;BME280;29792;48.726;9.248;2022-09-01T11:56:15;97136.81;;;22.72;66.45
44131;BME280;29792;48.726;9.248;2022-09-01T11:58:41;97140.69;;;22.76;66.45
44131;BME280;29792;48.726;9.248;2022-09-01T12:01:21;97135.06;;;22.79;64.72
44131;BME280;29792;48.726;9.248;2022-09-01T12:03:49;97138.91;;;22.83;63.83
44131;BME280;29792;48.726;9.248;2022-09-01T12:06:24;97138.91;;;22.90;64.19
44131;BME280;29792;48.726;9.248;2022-09-01T12:09:02;97136.91;;;22.92;63.00
44131;BME280;29792;48.726;9.248;2022-09-01T12:11:31;97125.06;;;22.96;64.24
44131;BME280;29792;48.726;9.248;2022-09-01T12:14:00;97126.66;;;22.97;63.01
44131;BME280;29792;48.726;9.248;2022-09-01T12:16:27;97127.09;;;23.01;64.19
44131;BME280;29792;48.726;9.248;2022-09-01T12:18:55;97125.28;;;23.14;64.45
44131;BME280;29792;48.726;9.248;2022-09-01T12:21:26;97126.09;;;23.28;62.93
44131;BME280;29792;48.726;9.248;2022-09-01T12:23:53;97113.63;;;23.37;63.49
44131;BME280;29792;48.726;9.248;2022-09-01T12:26:26;97115.88;;;23.40;62.99
44131;BME280;29792;48.726;9.248;2022-09-01T12:28:53;97122.09;;;23.39;62.69
44131;BME280;29792;48.726;9.248;2022-09-01T12:31:21;97114.25;;;23.32;62.45
44131;BME280;29792;48.726;9.248;2022-09-01T12:33:48;97117.88;;;23.25;63.62
44131;BME280;29792;48.726;9.248;2022-09-01T12:36:17;97116.06;;;23.25;63.07
44131;BME280;29792;48.726;9.248;2022-09-01T12:38:43;97116.88;;;23.32;63.92
44131;BME280;29792;48.726;9.248;2022-09-01T12:41:34;97121.47;;;23.43;63.26
44131;BME280;29792;48.726;9.248;2022-09-01T12:45:34;97125.13;;;23.42;61.95
44131;BME280;29792;48.726;9.248;2022-09-01T12:50:02;97121.28;;;23.25;63.17
44131;BME280;29792;48.726;9.248;2022-09-01T12:52:28;97118.88;;;23.17;63.10
44131;BME280;29792;48.726;9.248;2022-09-01T13:00:07;97119.81;;;22.90;62.38
44131;BME280;29792;48.726;9.248;2022-09-01T13:02:36;97114.16;;;22.79;62.30
44131;BME280;29792;48.726;9.248;2022-09-01T13:05:28;97121.31;;;22.71;60.98
44131;BME280;29792;48.726;9.248;2022-09-01T13:07:56;97125.16;;;22.68;61.50
44131;BME280;29792;48.726;9.248;2022-09-01T13:10:23;97116.69;;;22.66;61.65
44131;BME280;29792;48.726;9.248;2022-09-01T13:12:50;97117.09;;;22.63;61.41
44131;BME280;29792;48.726;9.248;2022-09-01T13:15:16;97118.88;;;22.56;60.95
44131;BME280;29792;48.726;9.248;2022-09-01T13:17:41;97118.25;;;22.54;61.16
44131;BME280;29792;48.726;9.248;2022-09-01T13:20:07;97113.66;;;22.56;62.42
44131;BME280;29792;48.726;9.248;2022-09-01T13:22:34;97111.88;;;22.63;61.44
44131;BME280;29792;48.726;9.248;2022-09-01T13:25:00;97104.06;;;22.70;61.82
44131;BME280;29792;48.726;9.248;2022-09-01T13:27:26;97105.31;;;22.80;62.40
44131;BME280;29792;48.726;9.248;2022-09-01T13:29:51;97103.75;;;22.93;61.98
44131;BME280;29792;48.726;9.248;2022-09-01T13:32:17;97106.19;;;23.07;62.01
44131;BME280;29792;48.726;9.248;2022-09-01T13:34:43;97107.00;;;23.21;62.26
44131;BME280;29792;48.726;9.248;2022-09-01T13:37:08;97099.75;;;23.30;61.44
44131;BME280;29792;48.726;9.248;2022-09-01T13:39:33;97100.97;;;23.40;62.08
44131;BME280;29792;48.726;9.248;2022-09-01T13:41:58;97099.38;;;23.52;61.82
44131;BME280;29792;48.726;9.248;2022-09-01T13:44:24;97099.97;;;23.61;62.01
44131;BME280;29792;48.726;9.248;2022-09-01T13:46:49;97092.94;;;23.68;62.44
44131;BME280;29792;48.726;9.248;2022-09-01T13:49:14;97085.69;;;23.70;61.82
44131;BME280;29792;48.726;9.248;2022-09-01T13:51:40;97098.16;;;23.68;60.98
44131;BME280;29792;48.726;9.248;2022-09-01T13:54:05;97094.94;;;23.59;59.68
44131;BME280;29792;48.726;9.248;2022-09-01T13:56:30;97095.59;;;23.48;59.19
44131;BME280;29792;48.726;9.248;2022-09-01T13:58:56;97097.38;;;23.35;59.88
44131;BME280;29792;48.726;9.248;2022-09-01T14:01:21;97090.50;;;23.27;60.34
44131;BME280;29792;48.726;9.248;2022-09-01T14:03:47;97088.31;;;23.24;60.44
44131;BME280;29792;48.726;9.248;2022-09-01T14:06:13;97089.91;;;23.25;60.63